Time;durP1;ratioP1;P1;durP2;ratioP2;P2;SDS_P1;SDS_P2;PMS_P1;PMS_P2;Temp;Humidity;BMP_temperature;BMP_pressure;BME280_temperature;BME280_humidity;BME280_pressure;Samples;Min_cycle;Max_cycle;Signal;HPM_P1;HPM_P2
2022/12/27 00:01:29;;;;;;;13.67;4.77;;;;;;;1.84;100.00;102032.00;5262044;28;20029;-68
2022/12/27 00:04:01;;;;;;;14.30;5.40;;;;;;;1.74;100.00;102031.59;5260338;28;20033;-67
2022/12/27 00:06:33;;;;;;;16.73;5.43;;;;;;;1.71;100.00;102028.91;5262323;28;20029;-68
2022/12/27 00:09:05;;;;;;;15.20;5.30;;;;;;;1.88;100.00;102039.88;5260796;28;20449;-67
2022/12/27 00:11:37;;;;;;;13.45;4.30;;;;;;;1.85;100.00;102038.88;5262177;28;20025;-68
2022/12/27 00:14:09;;;;;;;13.70;4.68;;;;;;;1.81;100.00;102043.88;5261664;28;20112;-68
2022/12/27 00:16:41;;;;;;;15.48;5.60;;;;;;;1.88;100.00;102049.31;5261734;28;20127;-67
2022/12/27 00:19:12;;;;;;;15.13;5.80;;;;;;;2.00;100.00;102049.84;5261568;28;20029;-68
2022/12/27 00:21:44;;;;;;;8.40;3.67;;;;;;;1.94;100.00;102041.84;5261466;28;20060;-67
2022/12/27 00:24:15;;;;;;;14.83;4.70;;;;;;;1.99;100.00;102048.94;5262018;28;20035;-67
2022/12/27 00:26:47;;;;;;;15.37;5.63;;;;;;;1.94;100.00;102044.44;5265305;28;20025;-67
2022/12/27 00:29:18;;;;;;;13.27;5.63;;;;;;;1.95;100.00;102041.06;5265267;28;20033;-68
2022/12/27 00:31:49;;;;;;;10.33;4.13;;;;;;;1.95;100.00;102047.06;5265195;28;20083;-66
2022/12/27 00:34:21;;;;;;;13.90;4.80;;;;;;;1.98;100.00;102041.16;5265235;28;20036;-67
2022/12/27 00:36:52;;;;;;;12.30;5.03;;;;;;;1.92;100.00;102035.78;5265659;28;20048;-66
2022/12/27 00:39:24;;;;;;;14.47;5.27;;;;;;;1.93;100.00;102047.81;5265134;28;20460;-67
2022/12/27 00:41:55;;;;;;;11.07;3.80;;;;;;;1.90;100.00;102046.00;5264776;28;20029;-67
2022/12/27 00:44:26;;;;;;;11.67;5.80;;;;;;;1.93;100.00;102047.81;5265562;28;20037;-67
2022/12/27 00:46:58;;;;;;;13.80;4.60;;;;;;;1.96;100.00;102048.81;5264800;28;20080;-67
2022/12/27 00:49:30;;;;;;;12.17;4.77;;;;;;;1.98;100.00;102051.44;5265284;28;20369;-68
2022/12/27 00:52:01;;;;;;;16.20;5.35;;;;;;;1.95;100.00;102047.06;5263530;28;20098;-68
2022/12/27 00:54:32;;;;;;;11.97;4.97;;;;;;;1.92;100.00;102059.78;5264952;28;20037;-68
2022/12/27 00:57:04;;;;;;;21.10;7.30;;;;;;;1.94;100.00;102058.16;5263733;28;20037;-68
2022/12/27 00:59:35;;;;;;;10.50;4.37;;;;;;;1.95;100.00;102064.19;5264621;28;20198;-67
2022/12/27 01:02:07;;;;;;;19.50;5.67;;;;;;;1.94;100.00;102063.31;5265369;28;20538;-69
2022/12/27 01:04:38;;;;;;;15.13;5.10;;;;;;;2.02;100.00;102075.63;5264577;28;20064;-68
2022/12/27 01:07:09;;;;;;;15.93;4.93;;;;;;;1.98;100.00;102082.31;5264383;28;20029;-68
2022/12/27 01:09:41;;;;;;;14.50;5.67;;;;;;;1.97;100.00;102075.44;5264651;28;20025;-68
2022/12/27 01:12:12;;;;;;;13.70;4.80;;;;;;;1.94;100.00;102078.72;5263467;28;20079;-68
2022/12/27 01:14:44;;;;;;;17.60;4.10;;;;;;;1.98;100.00;102077.16;5264757;28;20048;-68
2022/12/27 01:17:15;;;;;;;13.50;4.47;;;;;;;1.98;100.00;102082.31;5263235;28;20507;-67
2022/12/27 01:19:46;;;;;;;16.07;6.00;;;;;;;1.93;100.00;102082.13;5264383;28;20120;-68
2022/12/27 01:22:18;;;;;;;14.27;5.07;;;;;;;1.95;100.00;102079.63;5264292;28;20090;-69
2022/12/27 01:24:49;;;;;;;17.33;4.60;;;;;;;1.93;100.00;102083.81;5264729;28;20051;-69
2022/12/27 01:27:20;;;;;;;17.00;5.60;;;;;;;1.94;100.00;102083.88;5264367;28;20039;-67
2022/12/27 01:29:52;;;;;;;15.17;4.40;;;;;;;2.04;100.00;102087.72;5262878;28;20063;-67
2022/12/27 01:32:24;;;;;;;19.40;5.15;;;;;;;2.06;100.00;102083.53;5264333;28;20033;-66
2022/12/27 01:34:55;;;;;;;13.73;4.57;;;;;;;2.13;100.00;102094.97;5264322;28;20104;-68
2022/12/27 01:37:27;;;;;;;12.53;4.60;;;;;;;2.10;100.00;102100.84;5261959;28;20041;-71
2022/12/27 01:39:59;;;;;;;19.30;6.88;;;;;;;2.06;100.00;102101.56;5262448;28;20048;-68
2022/12/27 01:45:25;;;;;;;10.23;4.25;;;;;;;2.08;100.00;102099.91;5264229;28;20033;-67
2022/12/27 01:48:10;;;;;;;10.52;4.35;;;;;;;2.05;100.00;102110.06;5263863;28;20040;-68
2022/12/27 01:50:46;;;;;;;13.55;5.20;;;;;;;1.98;100.00;102105.44;5264321;28;20047;-67
2022/12/27 01:53:19;;;;;;;12.50;4.35;;;;;;;1.97;100.00;102117.44;5262801;28;20107;-67
2022/12/27 01:55:55;;;;;;;;;;;;;;;2.03;100.00;102127.13;5263167;28;20400;-66
2022/12/27 01:58:34;;;;;;;12.73;4.18;;;;;;;2.07;100.00;102111.00;5263730;28;19962;-68
2022/12/27 02:01:11;;;;;;;15.02;5.38;;;;;;;2.07;100.00;102121.28;5263965;28;20049;-68
2022/12/27 02:03:49;;;;;;;22.13;5.13;;;;;;;2.03;100.00;102122.00;5263515;28;20103;-66
2022/12/27 02:06:22;;;;;;;16.00;6.00;;;;;;;2.01;100.00;102131.31;5263890;28;20380;-66
2022/12/27 02:08:56;;;;;;;17.30;5.38;;;;;;;2.06;100.00;102132.41;5263220;28;20499;-69
2022/12/27 02:14:28;;;;;;;17.42;5.38;;;;;;;2.04;100.00;102138.28;5263735;28;20037;-69
2022/12/27 02:17:03;;;;;;;13.35;4.78;;;;;;;1.98;100.00;102129.50;5261867;28;20108;-67
2022/12/27 02:19:40;;;;;;;14.88;4.10;;;;;;;2.07;100.00;102134.16;5262937;28;20488;-67
2022/12/27 02:25:42;;;;;;;11.20;4.07;;;;;;;2.07;100.00;102126.44;5263012;28;20416;-68
2022/12/27 02:28:32;;;;;;;11.93;5.55;;;;;;;2.05;100.00;102133.22;5263552;28;20415;-67
2022/12/27 02:31:15;;;;;;;14.68;4.63;;;;;;;2.02;100.00;102142.50;5262669;28;20028;-69
2022/12/27 02:33:51;;;;;;;12.30;3.95;;;;;;;2.11;100.00;102136.06;5263191;28;20025;-67
2022/12/27 02:36:27;;;;;;;14.52;4.20;;;;;;;2.10;100.00;102149.72;5262531;28;20124;-67
2022/12/27 02:39:01;;;;;;;11.55;4.30;;;;;;;2.16;100.00;102150.00;5262425;28;20037;-67
2022/12/27 02:53:35;;;;;;;13.00;5.53;;;;;;;2.10;100.00;102148.84;5263134;28;20033;-66
2022/12/27 02:59:11;;;;;;;22.92;5.07;;;;;;;2.13;100.00;102144.72;5262851;28;20037;-67
2022/12/27 03:05:25;;;;;;;16.33;4.40;;;;;;;2.11;100.00;102133.50;5262816;28;20041;-67
2022/12/27 03:08:27;;;;;;;13.27;4.63;;;;;;;2.14;100.00;102120.75;5261389;28;20127;-69
2022/12/27 03:17:03;;;;;;;9.73;3.50;;;;;;;2.30;100.00;102129.13;5262757;28;20452;-66
2022/12/27 03:25:28;;;;;;;13.75;3.80;;;;;;;2.32;100.00;102155.81;5262552;28;20084;-68
2022/12/27 03:34:03;;;;;;;13.48;4.75;;;;;;;2.25;100.00;102161.50;5262143;28;20089;-67
2022/12/27 03:39:36;;;;;;;10.65;4.10;;;;;;;2.23;100.00;102166.56;5261812;28;20045;-67
2022/12/27 03:45:09;;;;;;;12.05;4.00;;;;;;;2.17;100.00;102174.03;5262329;28;20372;-68
2022/12/27 03:47:59;;;;;;;12.50;4.00;;;;;;;2.18;100.00;102171.50;5261372;28;20029;-67
2022/12/27 03:50:37;;;;;;;17.92;4.95;;;;;;;2.16;100.00;102180.00;5261692;28;20124;-66
2022/12/27 03:53:17;;;;;;;13.90;4.03;;;;;;;2.11;100.00;102174.66;5262357;28;20036;-68
2022/12/27 03:55:49;;;;;;;16.10;4.28;;;;;;;2.07;100.00;102185.59;5261774;28;20215;-67
2022/12/27 03:58:20;;;;;;;12.77;4.60;;;;;;;2.05;100.00;102183.78;5261857;28;20112;-67
2022/12/27 04:00:52;;;;;;;11.43;4.03;;;;;;;2.09;100.00;102176.25;5264798;28;20145;-67
2022/12/27 04:03:23;;;;;;;17.13;5.00;;;;;;;2.09;100.00;102183.97;5265718;28;20033;-67
2022/12/27 04:05:55;;;;;;;18.77;5.33;;;;;;;2.03;100.00;102180.25;5265723;28;20064;-67
2022/12/27 04:36:46;;;;;;;14.38;4.75;;;;;;;1.97;100.00;102188.59;5265540;28;20048;-67
2022/12/27 04:39:17;;;;;;;20.27;5.83;;;;;;;1.96;100.00;102179.09;5265003;28;20029;-68
2022/12/27 04:56:09;;;;;;;12.30;3.97;;;;;;;1.97;100.00;102204.00;5265004;28;20037;-67
2022/12/27 05:02:01;;;;;;;24.17;5.00;;;;;;;1.90;100.00;102208.00;5264710;28;20033;-68
2022/12/27 05:04:22;;;;;;;12.23;4.22;;;;;;;1.85;100.00;102216.31;5264621;28;20029;-67
2022/12/27 05:06:53;;;;;;;13.83;4.50;;;;;;;1.85;100.00;102212.03;5264788;28;20033;-68
2022/12/27 05:15:05;;;;;;;23.35;4.50;;;;;;;1.72;100.00;102210.59;5264300;28;20032;-67
2022/12/27 05:17:37;;;;;;;11.93;4.13;;;;;;;1.74;100.00;102206.41;5264445;28;20453;-67
2022/12/27 05:20:09;;;;;;;16.70;4.13;;;;;;;1.73;100.00;102211.47;5265017;28;20271;-67
2022/12/27 05:25:37;;;;;;;14.23;5.80;;;;;;;1.92;100.00;102214.09;5264184;28;20045;-68
2022/12/27 05:28:10;;;;;;;16.77;4.47;;;;;;;1.99;100.00;102216.13;5264210;28;20409;-67
2022/12/27 05:30:43;;;;;;;15.55;4.97;;;;;;;2.03;100.00;102222.31;5264242;28;20128;-67
2022/12/27 05:33:14;;;;;;;18.50;4.90;;;;;;;2.14;100.00;102243.34;5263955;28;20039;-67
2022/12/27 05:35:45;;;;;;;12.87;4.27;;;;;;;2.08;100.00;102238.81;5264032;28;20119;-67
2022/12/27 05:38:17;;;;;;;11.73;4.30;;;;;;;2.09;100.00;102244.84;5264240;28;20032;-67
2022/12/27 05:40:48;;;;;;;13.73;4.40;;;;;;;2.10;100.00;102247.47;5264581;28;20502;-67
2022/12/27 05:43:20;;;;;;;11.30;4.93;;;;;;;2.05;100.00;102253.25;5262836;28;20079;-67
2022/12/27 05:45:51;;;;;;;17.07;4.80;;;;;;;1.94;100.00;102253.59;5263780;28;20037;-69
2022/12/27 05:48:22;;;;;;;20.03;4.20;;;;;;;1.85;100.00;102253.16;5263935;28;20044;-67
2022/12/27 05:50:54;;;;;;;15.83;4.47;;;;;;;1.86;100.00;102252.38;5263734;28;20415;-67
2022/12/27 05:53:25;;;;;;;15.63;5.67;;;;;;;1.76;100.00;102261.34;5263363;28;20099;-66
2022/12/27 05:55:58;;;;;;;16.17;3.77;;;;;;;1.70;100.00;102261.06;5263664;28;20036;-67
2022/12/27 05:58:30;;;;;;;13.23;4.10;;;;;;;1.63;100.00;102267.59;5263445;28;20073;-68
2022/12/27 06:01:08;;;;;;;15.93;4.38;;;;;;;1.57;100.00;102279.28;5263087;28;20053;-66
2022/12/27 06:03:39;;;;;;;15.52;4.32;;;;;;;1.40;100.00;102275.88;5263901;28;20063;-68
2022/12/27 06:06:11;;;;;;;13.77;4.67;;;;;;;1.45;100.00;102282.16;5263662;28;20384;-67
2022/12/27 06:08:43;;;;;;;16.08;4.75;;;;;;;1.43;100.00;102276.94;5263484;28;20409;-67
2022/12/27 06:11:16;;;;;;;17.50;5.40;;;;;;;1.42;100.00;102269.16;5263206;28;20033;-67
2022/12/27 06:13:50;;;;;;;10.52;4.90;;;;;;;1.48;100.00;102273.69;5263269;28;20117;-67
2022/12/27 06:16:21;;;;;;;24.02;5.25;;;;;;;1.57;100.00;102264.72;5263261;28;20033;-67
2022/12/27 06:18:53;;;;;;;13.13;4.43;;;;;;;1.53;100.00;102273.13;5263454;28;20051;-66
2022/12/27 06:21:24;;;;;;;14.23;4.63;;;;;;;1.43;100.00;102271.78;5263164;28;20480;-68
2022/12/27 06:23:56;;;;;;;19.50;8.30;;;;;;;1.46;100.00;102276.19;5262833;28;20053;-70
2022/12/27 06:26:28;;;;;;;19.97;5.07;;;;;;;1.48;100.00;102273.69;5263040;28;20040;-68
2022/12/27 06:29:00;;;;;;;16.60;4.90;;;;;;;1.54;100.00;102269.72;5262781;28;20043;-68
2022/12/27 06:31:31;;;;;;;15.77;5.67;;;;;;;1.55;100.00;102278.34;5262664;28;20036;-68
2022/12/27 06:34:03;;;;;;;19.23;4.70;;;;;;;1.51;100.00;102281.56;5262725;28;20468;-69
2022/12/27 06:36:34;;;;;;;17.83;4.73;;;;;;;1.40;100.00;102283.59;5262637;28;20033;-68
2022/12/27 06:39:05;;;;;;;16.50;6.70;;;;;;;1.49;100.00;102275.47;5262479;28;20430;-69
2022/12/27 06:41:37;;;;;;;14.30;5.83;;;;;;;1.37;100.00;102270.59;5263321;28;20389;-68
2022/12/27 06:44:08;;;;;;;13.73;4.60;;;;;;;1.33;100.00;102273.84;5262622;28;20108;-68
2022/12/27 06:46:39;;;;;;;14.87;5.53;;;;;;;1.35;100.00;102277.34;5262713;28;20064;-67
2022/12/27 06:49:11;;;;;;;17.70;5.37;;;;;;;1.26;100.00;102273.53;5262727;28;20502;-68
2022/12/27 06:51:42;;;;;;;16.73;6.43;;;;;;;1.34;100.00;102280.75;5262379;28;20083;-69
2022/12/27 06:54:13;;;;;;;20.00;5.03;;;;;;;1.25;100.00;102281.16;5262173;28;20039;-67
2022/12/27 06:56:45;;;;;;;20.30;5.17;;;;;;;1.12;100.00;102277.09;5262443;28;20036;-68
2022/12/27 06:59:16;;;;;;;19.43;5.23;;;;;;;1.08;100.00;102270.94;5262141;28;20464;-68
2022/12/27 07:01:48;;;;;;;20.27;5.43;;;;;;;1.03;100.00;102269.81;5262901;28;20037;-68
2022/12/27 07:04:19;;;;;;;15.47;4.87;;;;;;;1.04;100.00;102269.00;5262417;28;20025;-68
2022/12/27 07:06:50;;;;;;;17.43;5.60;;;;;;;1.13;100.00;102280.53;5262346;28;20143;-68
2022/12/27 07:09:22;;;;;;;16.80;5.37;;;;;;;1.05;100.00;102286.19;5261248;28;20036;-68
2022/12/27 07:11:53;;;;;;;17.10;5.90;;;;;;;1.01;100.00;102278.25;5262071;28;20476;-67
2022/12/27 07:14:24;;;;;;;19.27;5.87;;;;;;;1.11;100.00;102292.44;5261257;28;20036;-68
2022/12/27 07:16:56;;;;;;;18.37;7.37;;;;;;;1.08;100.00;102288.03;5262228;28;20064;-69
2022/12/27 07:19:27;;;;;;;20.43;6.13;;;;;;;1.07;100.00;102289.69;5262148;28;20025;-67
2022/12/27 07:21:58;;;;;;;13.30;5.37;;;;;;;1.07;100.00;102296.53;5261849;28;20033;-67
2022/12/27 07:24:32;;;;;;;18.07;6.03;;;;;;;1.17;100.00;102297.88;5261899;28;20025;-67
2022/12/27 07:27:04;;;;;;;15.35;6.50;;;;;;;1.19;100.00;102294.59;5262716;28;20372;-68
2022/12/27 07:29:35;;;;;;;23.42;7.30;;;;;;;1.29;100.00;102298.50;5261745;28;20032;-69
2022/12/27 07:32:06;;;;;;;17.90;6.47;;;;;;;1.26;100.00;102295.78;5261978;28;20090;-67
2022/12/27 07:34:38;;;;;;;19.73;6.97;;;;;;;1.34;100.00;102302.16;5262042;28;20057;-67
2022/12/27 07:37:09;;;;;;;13.90;5.60;;;;;;;1.43;100.00;102302.63;5264963;28;20060;-67
2022/12/27 07:39:40;;;;;;;22.53;6.77;;;;;;;1.48;100.00;102302.81;5266068;28;20025;-68
2022/12/27 07:42:12;;;;;;;18.80;7.20;;;;;;;1.43;100.00;102310.34;5265545;28;20110;-68
2022/12/27 07:44:43;;;;;;;23.73;6.87;;;;;;;1.58;100.00;102311.91;5265859;28;20431;-67
2022/12/27 07:47:15;;;;;;;21.83;7.47;;;;;;;1.58;100.00;102310.19;5265994;28;20061;-67
2022/12/27 07:49:46;;;;;;;18.50;7.13;;;;;;;1.63;100.00;102311.28;5265610;28;20036;-67
2022/12/27 07:52:17;;;;;;;23.80;7.63;;;;;;;1.58;100.00;102314.47;5265973;28;20045;-68
2022/12/27 07:54:49;;;;;;;23.33;7.37;;;;;;;1.56;100.00;102310.91;5265489;28;20048;-67
2022/12/27 07:57:20;;;;;;;16.67;6.10;;;;;;;1.53;100.00;102310.78;5265945;28;20512;-67
2022/12/27 07:59:51;;;;;;;20.03;7.20;;;;;;;1.59;100.00;102317.09;5263819;28;20118;-67
2022/12/27 08:02:23;;;;;;;24.17;6.70;;;;;;;1.58;100.00;102314.47;5265629;28;20476;-69
2022/12/27 08:04:54;;;;;;;17.27;7.00;;;;;;;1.63;100.00;102321.59;5264380;28;20098;-68
2022/12/27 08:07:25;;;;;;;23.77;7.00;;;;;;;1.70;100.00;102322.75;5264186;28;20025;-67
2022/12/27 08:09:57;;;;;;;19.77;6.77;;;;;;;1.71;100.00;102321.09;5264966;28;20052;-68
2022/12/27 08:12:28;;;;;;;13.20;6.17;;;;;;;1.71;100.00;102324.53;5265140;28;20403;-68
2022/12/27 08:14:59;;;;;;;18.03;6.57;;;;;;;1.77;100.00;102326.50;5265426;28;20029;-68
2022/12/27 08:17:31;;;;;;;18.70;6.37;;;;;;;1.73;100.00;102333.19;5265256;28;20037;-68
2022/12/27 08:20:03;;;;;;;16.53;6.70;;;;;;;1.76;100.00;102333.34;5264976;28;20078;-68
2022/12/27 08:22:34;;;;;;;21.70;7.13;;;;;;;1.82;100.00;102345.63;5265086;28;20029;-68
2022/12/27 08:25:06;;;;;;;14.60;6.23;;;;;;;1.89;100.00;102336.50;5264099;28;20049;-68
2022/12/27 08:27:38;;;;;;;23.38;8.15;;;;;;;1.90;100.00;102336.59;5263528;28;20033;-68
2022/12/27 08:30:10;;;;;;;19.43;7.67;;;;;;;1.99;100.00;102344.72;5264875;28;20536;-69
2022/12/27 08:32:41;;;;;;;15.77;7.47;;;;;;;2.00;100.00;102350.75;5264777;28;20056;-68
2022/12/27 08:35:12;;;;;;;15.23;7.87;;;;;;;1.94;100.00;102342.75;5264798;28;20045;-72
2022/12/27 08:37:44;;;;;;;16.33;6.83;;;;;;;1.99;100.00;102346.41;5265761;28;20033;-69
2022/12/27 08:40:15;;;;;;;18.97;6.37;;;;;;;2.01;100.00;102344.78;5264657;28;20044;-69
2022/12/27 08:42:47;;;;;;;15.40;6.53;;;;;;;2.05;100.00;102338.13;5264848;28;20029;-68
2022/12/27 08:45:18;;;;;;;15.60;7.40;;;;;;;2.14;100.00;102329.13;5265219;28;20025;-70
2022/12/27 08:47:49;;;;;;;10.60;6.53;;;;;;;2.10;100.00;102331.50;5264415;28;20033;-69
2022/12/27 08:50:21;;;;;;;18.27;6.60;;;;;;;2.16;100.00;102335.22;5264520;28;20053;-69
2022/12/27 08:52:55;;;;;;;19.80;7.03;;;;;;;2.34;100.00;102330.03;5265040;28;20037;-69
2022/12/27 08:55:28;;;;;;;18.08;6.75;;;;;;;2.45;100.00;102332.25;5264235;28;20037;-69
2022/12/27 08:58:01;;;;;;;14.00;6.60;;;;;;;2.55;100.00;102332.72;5264937;28;20044;-69
2022/12/27 09:00:33;;;;;;;19.45;7.25;;;;;;;2.69;100.00;102342.75;5263882;28;20055;-68
2022/12/27 09:03:05;;;;;;;13.13;5.60;;;;;;;2.76;100.00;102344.78;5263879;28;20041;-68
2022/12/27 09:05:37;;;;;;;16.23;5.83;;;;;;;2.89;100.00;102341.94;5264416;28;20472;-68
2022/12/27 09:08:09;;;;;;;17.67;5.80;;;;;;;2.99;100.00;102347.50;5264098;28;20068;-72
2022/12/27 09:10:41;;;;;;;16.80;5.35;;;;;;;3.06;100.00;102331.50;5264372;28;20471;-69
2022/12/27 09:13:12;;;;;;;14.60;4.80;;;;;;;3.17;100.00;102332.84;5264247;28;20142;-68
2022/12/27 09:15:44;;;;;;;13.57;5.07;;;;;;;3.20;100.00;102329.50;5264069;28;20032;-69
2022/12/27 09:18:15;;;;;;;13.63;4.53;;;;;;;3.23;100.00;102335.66;5262733;28;20493;-68
2022/12/27 09:20:46;;;;;;;14.13;4.43;;;;;;;3.34;100.00;102336.09;5264107;28;20208;-68
2022/12/27 09:23:18;;;;;;;15.13;5.13;;;;;;;3.45;100.00;102332.28;5262943;28;20086;-68
2022/12/27 09:25:49;;;;;;;15.27;4.60;;;;;;;3.63;100.00;102339.00;5264255;28;20029;-68
2022/12/27 09:28:20;;;;;;;14.63;5.00;;;;;;;3.70;100.00;102337.56;5264302;28;20167;-68
2022/12/27 09:30:52;;;;;;;12.83;4.73;;;;;;;3.81;100.00;102333.72;5263700;28;20068;-68
2022/12/27 09:33:23;;;;;;;12.87;4.53;;;;;;;4.09;100.00;102343.44;5263388;28;20052;-68
2022/12/27 09:36:09;;;;;;;12.03;3.90;;;;;;;4.41;100.00;102359.25;5261608;28;20439;-68
2022/12/27 09:38:42;;;;;;;10.73;4.38;;;;;;;4.44;100.00;102353.31;5263944;28;20025;-69
2022/12/27 09:41:34;;;;;;;12.82;4.05;;;;;;;4.62;100.00;102366.94;5263418;28;20037;-69
2022/12/27 09:44:47;;;;;;;12.18;3.85;;;;;;;4.70;100.00;102356.88;5263584;28;20029;-69
2022/12/27 09:47:44;;;;;;;9.20;3.90;;;;;;;4.86;100.00;102353.16;5241174;28;20500;-69
2022/12/27 09:50:42;;;;;;;10.38;3.70;;;;;;;5.05;100.00;102357.25;5263234;28;20036;-69
2022/12/27 09:53:23;;;;;;;11.32;4.45;;;;;;;5.05;100.00;102352.09;5264062;28;20025;-70
2022/12/27 09:55:56;;;;;;;11.10;4.80;;;;;;;5.17;100.00;102359.38;5263607;28;20064;-69
2022/12/27 09:58:56;;;;;;;11.20;3.42;;;;;;;5.27;100.00;102357.19;5262783;28;20067;-69
2022/12/27 10:01:31;;;;;;;8.70;3.60;;;;;;;5.56;100.00;102353.84;5262890;28;20049;-69
2022/12/27 10:04:03;;;;;;;10.95;3.38;;;;;;;5.64;100.00;102362.72;5263061;28;20365;-69
2022/12/27 10:06:50;;;;;;;10.48;3.45;;;;;;;5.82;100.00;102360.72;5263026;28;20183;-69
2022/12/27 10:09:32;;;;;;;11.98;3.75;;;;;;;5.92;98.89;102368.78;5263223;28;20476;-68
2022/12/27 10:12:28;;;;;;;9.10;3.70;;;;;;;6.24;97.65;102376.72;5263164;28;20112;-69
2022/12/27 10:15:15;;;;;;;13.07;4.20;;;;;;;6.51;96.37;102367.19;5263020;28;20055;-69
2022/12/27 10:18:31;;;;;;;8.45;3.40;;;;;;;6.80;95.44;102376.63;5263236;28;20028;-67
2022/12/27 10:21:31;;;;;;;12.60;4.15;;;;;;;6.83;93.68;102377.59;5263125;28;20082;-70
2022/12/27 10:24:18;;;;;;;16.95;4.05;;;;;;;6.92;93.40;102361.41;5249761;28;20072;-67
2022/12/27 10:26:52;;;;;;;11.23;4.05;;;;;;;7.18;92.75;102363.84;5262989;28;20032;-68
2022/12/27 10:29:25;;;;;;;10.57;3.58;;;;;;;7.01;91.37;102351.31;5262470;28;20060;-68
2022/12/27 10:31:56;;;;;;;11.30;3.78;;;;;;;7.38;90.63;102354.88;5244710;28;20075;-68
2022/12/27 10:34:28;;;;;;;9.50;3.70;;;;;;;7.48;88.91;102366.34;5262349;28;20479;-67
2022/12/27 10:36:59;;;;;;;9.90;3.30;;;;;;;7.72;89.72;102366.09;5262653;28;20044;-67
2022/12/27 10:39:33;;;;;;;10.50;3.73;;;;;;;7.75;88.17;102360.09;5262372;28;20033;-69
2022/12/27 10:42:33;;;;;;;8.57;3.20;;;;;;;8.22;87.83;102366.38;5262251;28;20021;-68
2022/12/27 10:45:23;;;;;;;10.55;3.80;;;;;;;8.81;86.63;102366.78;5262533;28;20028;-68
2022/12/27 10:47:57;;;;;;;11.75;4.10;;;;;;;8.53;82.93;102359.31;5262312;28;20025;-68
2022/12/27 10:50:28;;;;;;;8.35;3.72;;;;;;;8.64;83.95;102356.91;5262096;28;20112;-68
2022/12/27 10:53:00;;;;;;;11.27;3.67;;;;;;;9.23;82.87;102361.50;5262143;28;20124;-68
2022/12/27 10:55:34;;;;;;;7.73;3.33;;;;;;;9.49;79.85;102361.09;5262159;28;20032;-68
2022/12/27 10:58:40;;;;;;;11.23;4.22;;;;;;;10.21;79.31;102371.78;5262049;28;20056;-68
2022/12/27 11:01:29;;;;;;;13.13;4.15;;;;;;;8.92;79.59;102379.16;5228619;28;20060;-68
2022/12/27 11:04:12;;;;;;;6.03;3.30;;;;;;;8.22;81.69;102368.09;5262142;28;20490;-68
2022/12/27 11:06:46;;;;;;;10.63;3.95;;;;;;;7.94;82.86;102359.69;5262175;28;20452;-68
2022/12/27 11:09:35;;;;;;;8.52;3.25;;;;;;;7.77;84.97;102361.88;5261130;28;20464;-69
2022/12/27 11:12:15;;;;;;;11.05;4.85;;;;;;;7.83;85.43;102351.66;5262577;28;20349;-67
2022/12/27 11:15:05;;;;;;;7.40;3.28;;;;;;;7.63;85.24;102343.38;5262252;28;20064;-68
2022/12/27 11:17:40;;;;;;;8.00;3.10;;;;;;;7.26;86.23;102337.28;5261976;28;20028;-68
2022/12/27 11:20:17;;;;;;;6.57;3.33;;;;;;;7.33;87.31;102337.44;5262005;28;20090;-69
2022/12/27 11:22:48;;;;;;;10.25;4.07;;;;;;;7.30;87.65;102341.69;5262181;28;20029;-67
2022/12/27 11:25:21;;;;;;;9.23;3.37;;;;;;;7.15;87.14;102337.81;5262131;28;20106;-68
2022/12/27 11:28:18;;;;;;;8.88;3.45;;;;;;;7.09;88.38;102352.38;5262184;28;20104;-68
2022/12/27 11:30:56;;;;;;;7.30;3.25;;;;;;;7.10;89.25;102337.72;5262252;28;20029;-68
2022/12/27 11:33:44;;;;;;;9.35;4.40;;;;;;;7.10;89.85;102343.78;5262691;28;20111;-68
2022/12/27 11:36:46;;;;;;;8.82;3.13;;;;;;;7.00;89.49;102341.75;5262165;28;20036;-68
2022/12/27 11:39:46;;;;;;;10.13;4.90;;;;;;;6.94;90.12;102347.66;5262700;28;20035;-70
2022/12/27 11:42:39;;;;;;;10.15;3.60;;;;;;;6.73;90.07;102340.19;5261977;28;20025;-68
2022/12/27 11:45:37;;;;;;;9.98;3.60;;;;;;;6.55;91.77;102342.22;5262747;28;20079;-69
2022/12/27 11:48:22;;;;;;;10.45;3.53;;;;;;;6.46;92.92;102331.63;5254211;28;20037;-69
2022/12/27 11:51:12;;;;;;;9.38;3.15;;;;;;;6.54;92.74;102341.38;5262561;28;20029;-67
2022/12/27 11:54:15;;;;;;;11.93;3.67;;;;;;;6.59;92.68;102331.13;5262254;28;20021;-66
2022/12/27 11:56:54;;;;;;;9.40;3.53;;;;;;;6.56;93.61;102331.91;5262268;28;20029;-68
2022/12/27 11:59:47;;;;;;;8.18;3.40;;;;;;;6.66;93.25;102324.41;5261708;28;20104;-68
2022/12/27 12:02:49;;;;;;;8.57;4.05;;;;;;;6.50;92.59;102329.13;5261823;28;20048;-69
2022/12/27 12:05:29;;;;;;;8.30;3.58;;;;;;;6.46;92.35;102331.63;5262417;28;20036;-69
2022/12/27 12:08:10;;;;;;;8.15;3.40;;;;;;;6.36;92.97;102320.13;5262210;28;20029;-68
2022/12/27 12:10:54;;;;;;;7.90;3.08;;;;;;;6.38;93.44;102313.25;5261501;28;20029;-68
2022/12/27 12:13:38;;;;;;;7.55;3.40;;;;;;;6.39;93.16;102308.13;5261676;28;20111;-69
2022/12/27 12:16:28;;;;;;;9.18;3.42;;;;;;;6.36;93.68;102307.16;5261538;28;20063;-69
2022/12/27 12:19:11;;;;;;;8.48;3.67;;;;;;;6.38;93.75;102308.09;5261818;28;20021;-69
2022/12/27 12:22:22;;;;;;;8.70;3.72;;;;;;;6.43;94.17;102292.69;5262637;28;20166;-69
2022/12/27 12:25:18;;;;;;;10.80;3.53;;;;;;;6.55;94.58;102295.59;5265285;28;20112;-68
2022/12/27 12:28:27;;;;;;;10.43;4.20;;;;;;;6.71;94.07;102296.91;5264422;28;20124;-68
2022/12/27 12:31:13;;;;;;;9.00;3.85;;;;;;;6.63;93.06;102303.59;5241329;28;20133;-68
2022/12/27 12:34:15;;;;;;;9.52;3.72;;;;;;;6.69;92.93;102298.59;5265708;28;20064;-68
2022/12/27 12:37:02;;;;;;;10.63;4.10;;;;;;;6.68;92.87;102289.03;5265260;28;20059;-68
2022/12/27 12:39:58;;;;;;;12.13;3.28;;;;;;;6.65;93.29;102296.72;5264962;28;20036;-69
2022/12/27 12:42:42;;;;;;;10.35;4.68;;;;;;;6.56;93.42;102281.81;5264834;28;20040;-68
2022/12/27 12:45:35;;;;;;;9.85;2.95;;;;;;;6.46;93.25;102288.47;5264780;28;20021;-69
2022/12/27 12:48:15;;;;;;;13.80;4.25;;;;;;;6.46;94.35;102279.81;5265210;28;20036;-68
2022/12/27 12:51:05;;;;;;;9.77;4.18;;;;;;;6.36;93.94;102281.28;5265092;28;20342;-68
2022/12/27 12:53:51;;;;;;;11.13;3.05;;;;;;;6.34;94.16;102268.28;5265273;28;20029;-68
2022/12/27 12:56:55;;;;;;;8.45;3.45;;;;;;;6.36;94.67;102263.13;5264590;28;20115;-69
2022/12/27 13:00:03;;;;;;;10.82;3.38;;;;;;;6.35;95.07;102251.88;5264981;28;20453;-68
2022/12/27 13:02:53;;;;;;;9.05;3.25;;;;;;;6.44;94.86;102233.16;5256622;28;20480;-68
2022/12/27 13:05:30;;;;;;;9.15;3.72;;;;;;;6.54;94.59;102239.44;5264668;28;20033;-69
2022/12/27 13:08:49;;;;;;;11.23;3.67;;;;;;;6.63;94.54;102225.84;5264678;28;20122;-70
2022/12/27 13:11:44;;;;;;;10.18;3.17;;;;;;;6.62;93.65;102225.00;5250693;28;20041;-67
2022/12/27 13:14:54;;;;;;;10.90;3.60;;;;;;;6.58;94.40;102217.94;5253337;28;20045;-67
2022/12/27 13:17:50;;;;;;;8.70;3.47;;;;;;;6.53;94.19;102227.31;5264159;28;20033;-68
2022/12/27 13:20:37;;;;;;;15.02;3.65;;;;;;;6.55;94.54;102212.69;5263245;28;20137;-68
2022/12/27 13:23:50;;;;;;;12.52;3.50;;;;;;;6.52;94.57;102207.41;5263932;28;20040;-67
2022/12/27 13:26:35;;;;;;;7.45;3.80;;;;;;;6.50;94.67;102216.88;5199865;28;20038;-68
2022/12/27 13:29:30;;;;;;;10.35;3.35;;;;;;;6.44;95.49;102224.47;5200489;28;20038;-67
2022/12/27 13:32:07;;;;;;;12.70;3.92;;;;;;;6.37;95.43;102226.88;5250728;28;20045;-67
2022/12/27 13:34:51;;;;;;;9.00;3.58;;;;;;;6.44;95.75;102215.00;5264176;28;20539;-68
2022/12/27 13:37:48;;;;;;;11.32;3.50;;;;;;;6.46;95.93;102208.16;5264298;28;20033;-69
2022/12/27 13:40:48;;;;;;;11.30;4.13;;;;;;;6.57;95.71;102186.00;5263733;28;20025;-68
2022/12/27 13:43:31;;;;;;;11.10;3.30;;;;;;;6.64;95.03;102181.84;5264198;28;20029;-68
2022/12/27 13:46:38;;;;;;;8.18;2.95;;;;;;;6.75;94.39;102171.75;5263659;28;20123;-68
2022/12/27 13:49:39;;;;;;;10.52;4.10;;;;;;;6.98;94.36;102174.91;5240293;28;20111;-68
2022/12/27 13:52:17;;;;;;;11.27;4.38;;;;;;;7.15;92.81;102171.84;5263834;28;20045;-68
2022/12/27 13:55:11;;;;;;;14.35;5.15;;;;;;;7.31;91.70;102171.38;5262281;28;20063;-69
2022/12/27 13:58:01;;;;;;;14.70;4.95;;;;;;;7.27;91.77;102173.00;5263808;28;20048;-69